createdAt,value
2022-09-11T00:02:01.422Z,101411.78
2022-09-11T00:04:33.327Z,101408.88
2022-09-11T00:07:02.524Z,101375.53
2022-09-11T00:09:33.075Z,101424.13
2022-09-11T00:12:02.660Z,101428.34
2022-09-11T00:14:31.905Z,101425.28
2022-09-11T00:17:01.081Z,101416.50
2022-09-11T00:19:30.370Z,101419.94
2022-09-11T00:21:59.523Z,101415.72
2022-09-11T00:24:28.739Z,101412.63
2022-09-11T00:26:59.390Z,101424.78
2022-09-11T00:29:29.982Z,101412.31
2022-09-11T00:31:59.133Z,101417.19
2022-09-11T00:34:28.542Z,101412.16
2022-09-11T00:36:58.201Z,101417.69
2022-09-11T00:39:27.564Z,101415.06
2022-09-11T00:41:58.599Z,101421.41
2022-09-11T00:45:03.832Z,101414.59
2022-09-11T00:47:33.659Z,101398.41
2022-09-11T00:50:13.523Z,101396.63
2022-09-11T00:52:53.177Z,101391.28
2022-09-11T00:55:27.390Z,101407.50
2022-09-11T00:58:03.029Z,101396.00
2022-09-11T01:00:32.660Z,101398.25
2022-09-11T01:03:03.267Z,101391.31
2022-09-11T01:05:34.949Z,101390.16
2022-09-11T01:08:04.696Z,101384.47
2022-09-11T01:10:47.975Z,101390.66
2022-09-11T01:13:29.138Z,101393.88
2022-09-11T01:16:10.706Z,101376.06
2022-09-11T01:18:47.111Z,101384.47
2022-09-11T01:21:53.486Z,101379.75
2022-09-11T01:24:56.500Z,101351.44
2022-09-11T01:27:45.854Z,101375.56
2022-09-11T01:30:18.800Z,101365.66
2022-09-11T01:33:23.190Z,101372.97
2022-09-11T01:36:01.435Z,101367.63
2022-09-11T01:38:41.856Z,101376.84
2022-09-11T01:41:20.520Z,101381.22
2022-09-11T01:44:00.641Z,101378.31
2022-09-11T01:46:36.311Z,101374.91
2022-09-11T01:49:16.957Z,101366.81
2022-09-11T01:51:59.283Z,101360.00
2022-09-11T01:54:42.795Z,101339.59
2022-09-11T01:57:38.268Z,101344.31
2022-09-11T02:00:14.606Z,101337.34
2022-09-11T02:03:01.939Z,101331.50
2022-09-11T03:34:18.030Z,101211.81
2022-09-11T03:36:49.160Z,101223.00
2022-09-11T03:39:18.385Z,101215.88
2022-09-11T03:41:47.912Z,101220.41
2022-09-11T03:44:17.832Z,101215.22
2022-09-11T03:46:47.399Z,101204.22
2022-09-11T03:49:18.196Z,101227.84
2022-09-11T03:51:48.117Z,101205.47
2022-09-11T03:54:17.838Z,101195.59
2022-09-11T03:56:48.678Z,101191.41
2022-09-11T03:59:20.125Z,101195.59
2022-09-11T04:01:51.023Z,101205.31
2022-09-11T04:04:23.182Z,101199.97
2022-09-11T04:06:53.067Z,101194.13
2022-09-11T04:09:22.242Z,101201.75
2022-09-11T04:11:54.254Z,101185.84
2022-09-11T04:14:28.848Z,101194.63
2022-09-11T04:17:00.747Z,101186.69
2022-09-11T04:19:32.502Z,101193.66
2022-09-11T04:22:02.098Z,101190.25
2022-09-11T04:24:31.742Z,101186.69
2022-09-11T04:27:01.784Z,101176.19
2022-09-11T04:29:32.620Z,101186.69
2022-09-11T04:32:03.536Z,101120.41
2022-09-11T04:34:38.266Z,101172.97
2022-09-11T04:37:08.354Z,101169.72
2022-09-11T04:39:41.360Z,101155.31
2022-09-11T04:42:11.054Z,101172.47
2022-09-11T04:44:42.173Z,101165.03
2022-09-11T04:47:11.374Z,101165.03
2022-09-11T04:49:43.244Z,101162.75
2022-09-11T04:52:12.973Z,101166.81
2022-09-11T04:54:42.346Z,101156.59
2022-09-11T04:57:14.108Z,101170.19
2022-09-11T04:59:43.285Z,101155.13
2022-09-11T05:02:15.221Z,101162.09
2022-09-11T05:04:49.510Z,101141.69
2022-09-11T05:07:19.539Z,101163.50
2022-09-11T05:09:54.526Z,101177.25
2022-09-11T05:12:24.346Z,101143.91
2022-09-11T05:14:53.549Z,101169.78
2022-09-11T05:17:22.862Z,101177.22
2022-09-11T05:19:53.520Z,101181.50
2022-09-11T05:22:25.115Z,101182.13
2022-09-11T05:24:58.685Z,101183.06
2022-09-11T05:27:28.363Z,101181.25
2022-09-11T05:29:58.241Z,101172.03
2022-09-11T05:32:27.553Z,101176.41
2022-09-11T05:34:59.617Z,101173.06
2022-09-11T05:37:29.082Z,101160.06
2022-09-11T05:39:58.898Z,101157.44
2022-09-11T05:42:28.728Z,101100.44
2022-09-11T05:44:58.423Z,101136.94
2022-09-11T05:47:29.408Z,101163.91
2022-09-11T05:50:00.288Z,101153.69
2022-09-11T05:52:30.639Z,101153.69
2022-09-11T05:54:59.899Z,101144.75
2022-09-11T05:57:29.099Z,101093.09
2022-09-11T05:59:58.912Z,101156.34
2022-09-11T06:02:28.553Z,101153.78
2022-09-11T06:04:59.625Z,101155.31
2022-09-11T06:07:28.841Z,101139.13
2022-09-11T06:10:02.993Z,101149.34
2022-09-11T06:12:35.140Z,101143.78
2022-09-11T06:15:04.650Z,101143.88
2022-09-11T06:17:33.855Z,101126.56
2022-09-11T06:20:05.169Z,101136.63
2022-09-11T06:22:37.789Z,101141.69
2022-09-11T06:25:07.987Z,101138.38
2022-09-11T06:27:37.223Z,101148.28
2022-09-11T06:30:09.066Z,101149.28
2022-09-11T06:32:40.226Z,101141.16
2022-09-11T06:35:11.759Z,101130.91
2022-09-11T06:37:41.346Z,101123.50
2022-09-11T06:40:13.549Z,101142.72
2022-09-11T06:42:43.003Z,101127.41
2022-09-11T06:45:12.922Z,101149.31
2022-09-11T06:47:43.313Z,101155.28
2022-09-11T06:50:14.807Z,101159.91
2022-09-11T06:53:02.415Z,101156.00
2022-09-11T06:55:32.881Z,101152.56
2022-09-11T06:58:08.883Z,101147.97
2022-09-11T07:00:38.691Z,101148.78
2022-09-11T07:03:08.117Z,101132.88
2022-09-11T07:05:40.165Z,101155.69
2022-09-11T07:08:09.477Z,101157.66
2022-09-11T07:10:39.308Z,101154.66
2022-09-11T07:13:09.061Z,101151.22
2022-09-11T07:15:38.775Z,101156.88
2022-09-11T07:18:08.585Z,101132.09
2022-09-11T07:20:42.563Z,101152.38
2022-09-11T07:23:13.002Z,101146.94
2022-09-11T07:25:43.494Z,101146.63
2022-09-11T07:28:12.630Z,101130.38
2022-09-11T07:30:42.410Z,101133.94
2022-09-11T07:33:11.883Z,101137.50
2022-09-11T07:35:42.617Z,101126.91
2022-09-11T07:38:11.911Z,101114.59
2022-09-11T07:40:44.212Z,101116.31
2022-09-11T07:43:13.950Z,101118.97
2022-09-11T07:45:43.905Z,101116.22
2022-09-11T07:48:13.605Z,101124.50
2022-09-11T07:50:44.226Z,101115.06
2022-09-11T07:53:13.658Z,101103.78
2022-09-11T07:55:43.713Z,101109.88
2022-09-11T07:58:13.640Z,101091.91
2022-09-11T08:00:43.287Z,101093.88
2022-09-11T08:03:20.044Z,101091.81
2022-09-11T08:05:50.904Z,101096.28
2022-09-11T08:08:21.244Z,101073.72
2022-09-11T08:10:51.052Z,101086.63
2022-09-11T08:13:21.897Z,101097.81
2022-09-11T08:15:52.264Z,101073.06
2022-09-11T08:18:22.737Z,101080.44
2022-09-11T08:20:54.662Z,101072.69
2022-09-11T08:23:24.049Z,101079.59
2022-09-11T08:25:53.926Z,101071.31
2022-09-11T08:28:25.180Z,101075.47
2022-09-11T08:31:02.055Z,101065.56
2022-09-11T08:33:33.420Z,101055.31
2022-09-11T08:36:12.200Z,101069.00
2022-09-11T08:38:44.996Z,101069.34
2022-09-11T08:41:41.220Z,101059.91
2022-09-11T08:44:22.208Z,101060.13
2022-09-11T08:46:58.544Z,101052.72
2022-09-11T08:49:30.773Z,101055.81
2022-09-11T08:52:07.209Z,101056.47
2022-09-11T08:54:40.307Z,101051.63
2022-09-11T08:57:20.765Z,101047.09
2022-09-11T09:00:15.223Z,101056.59
2022-09-11T09:03:19.238Z,101052.19
2022-09-11T09:05:57.969Z,101055.63
2022-09-11T09:08:44.941Z,101056.94
2022-09-11T09:11:30.495Z,101056.09
2022-09-11T09:14:18.535Z,101040.16
2022-09-11T09:16:54.572Z,101052.97
2022-09-11T09:19:31.754Z,101051.44
2022-09-11T09:22:13.579Z,101062.63
2022-09-11T09:24:51.040Z,101046.69
2022-09-11T09:27:28.377Z,101051.53
2022-09-11T09:30:03.377Z,101051.81
2022-09-11T09:32:40.670Z,101025.69
2022-09-11T09:35:18.080Z,101046.63
2022-09-11T09:37:48.765Z,101053.50
2022-09-11T09:40:20.423Z,101054.75
2022-09-11T09:43:30.190Z,101057.88
2022-09-11T09:46:16.909Z,101046.19
2022-09-11T09:48:46.184Z,101044.47
2022-09-11T09:51:16.317Z,101042.50
2022-09-11T09:53:50.130Z,101038.69
2022-09-11T09:56:23.789Z,101037.75
2022-09-11T09:59:02.871Z,101031.53
2022-09-11T10:01:48.478Z,101033.56
2022-09-11T10:04:22.344Z,101030.25
2022-09-11T10:06:53.983Z,101034.06
2022-09-11T10:09:29.784Z,101037.78
2022-09-11T10:12:03.668Z,101014.84
2022-09-11T10:14:54.189Z,101003.03
2022-09-11T10:17:32.298Z,101000.22
2022-09-11T10:20:27.002Z,101004.59
2022-09-11T10:22:57.306Z,101009.91
2022-09-11T10:25:30.091Z,101006.25
2022-09-11T10:28:06.403Z,101001.09
2022-09-11T10:30:39.177Z,101001.91
2022-09-11T10:33:19.944Z,100986.25
2022-09-11T10:35:55.240Z,100982.94
2022-09-11T10:38:30.903Z,100957.03
2022-09-11T10:41:09.557Z,100977.97
2022-09-11T10:43:56.067Z,100977.53
2022-09-11T10:46:38.768Z,100973.03
2022-09-11T10:49:25.907Z,100963.50
2022-09-11T10:52:06.296Z,100974.19
2022-09-11T10:54:53.386Z,100963.56
2022-09-11T10:57:29.150Z,100961.63
2022-09-11T11:00:09.898Z,100948.22
2022-09-11T11:02:42.172Z,100937.69
2022-09-11T11:05:26.254Z,100943.41
2022-09-11T11:08:28.002Z,100924.22
2022-09-11T11:11:15.299Z,100935.84
2022-09-11T11:14:17.229Z,100924.63
2022-09-11T11:16:59.708Z,100902.97
2022-09-11T11:19:52.956Z,100898.84
2022-09-11T11:22:37.246Z,100886.44
2022-09-11T11:25:23.078Z,100898.63
2022-09-11T11:28:13.518Z,100904.16
2022-09-11T11:30:53.295Z,100903.50
2022-09-11T11:33:47.131Z,100882.84
2022-09-11T11:36:28.542Z,100885.81
2022-09-11T11:39:03.421Z,100860.31
2022-09-11T11:41:39.515Z,100888.59
2022-09-11T11:44:15.903Z,100885.31
2022-09-11T11:46:50.000Z,100874.31
2022-09-11T11:49:28.407Z,100860.97
2022-09-11T11:52:06.518Z,100865.34
2022-09-11T11:54:46.653Z,100851.28
2022-09-11T11:57:22.376Z,100860.09
2022-09-11T12:00:00.249Z,100872.38
2022-09-11T12:02:38.618Z,100862.72
2022-09-11T12:05:14.445Z,100859.91
2022-09-11T12:07:43.812Z,100856.03
2022-09-11T12:10:31.084Z,100853.91
2022-09-11T12:13:03.696Z,100859.06
2022-09-11T12:15:35.857Z,100851.59
2022-09-11T12:18:21.036Z,100834.50
2022-09-11T12:20:51.723Z,100837.38
2022-09-11T12:23:56.364Z,100812.56
2022-09-11T12:26:27.749Z,100822.16
2022-09-11T12:29:51.865Z,100814.34
2022-09-11T12:32:42.130Z,100798.56
2022-09-11T12:35:34.964Z,100791.22
2022-09-11T12:38:22.091Z,100787.16
2022-09-11T12:40:56.519Z,100784.38
2022-09-11T12:43:46.770Z,100758.66
2022-09-11T12:47:12.132Z,100784.38
2022-09-11T12:49:43.947Z,100789.03
2022-09-11T12:52:29.233Z,100783.00
2022-09-11T12:55:05.762Z,100773.72
2022-09-11T12:57:38.890Z,100763.25
2022-09-11T13:00:22.932Z,100772.97
2022-09-11T13:02:57.843Z,100776.28
2022-09-11T13:05:34.693Z,100751.13
2022-09-11T13:08:08.234Z,100776.47
2022-09-11T13:10:40.534Z,100758.00
2022-09-11T13:13:44.628Z,100738.03
2022-09-11T13:16:24.356Z,100753.56
2022-09-11T13:19:09.430Z,100741.22
2022-09-11T13:21:40.861Z,100740.53
2022-09-11T13:24:25.581Z,100741.03
2022-09-11T13:26:59.867Z,100738.25
2022-09-11T13:29:32.698Z,100723.97
2022-09-11T13:32:11.495Z,100707.38
2022-09-11T13:34:45.276Z,100711.34
2022-09-11T13:37:20.917Z,100699.88
2022-09-11T13:39:50.262Z,100709.06
2022-09-11T13:42:25.818Z,100703.38
2022-09-11T13:44:58.156Z,100690.75
2022-09-11T13:47:31.542Z,100694.59
2022-09-11T13:50:03.565Z,100689.34
2022-09-11T13:52:35.695Z,100692.41
2022-09-11T13:55:12.630Z,100681.78
2022-09-11T13:57:56.574Z,100685.38
2022-09-11T14:00:44.951Z,100665.34
2022-09-11T14:03:22.829Z,100676.19
2022-09-11T14:05:55.229Z,100656.59
2022-09-11T14:08:32.569Z,100655.19
2022-09-11T14:11:10.990Z,100659.56
2022-09-11T14:13:50.590Z,100662.38
2022-09-11T14:16:27.170Z,100668.53
2022-09-11T14:19:00.863Z,100668.91
2022-09-11T14:21:35.871Z,100663.44
2022-09-11T14:24:23.359Z,100656.41
2022-09-11T14:26:52.707Z,100640.41
2022-09-11T14:29:29.201Z,100635.19
2022-09-11T14:32:35.103Z,100644.13
2022-09-11T14:35:06.641Z,100638.22
2022-09-11T14:37:43.735Z,100617.06
2022-09-11T14:40:17.953Z,100621.16
2022-09-11T14:42:48.102Z,100621.63
2022-09-11T14:45:23.980Z,100618.44
2022-09-11T14:47:53.537Z,100602.63
2022-09-11T14:50:24.753Z,100561.56
2022-09-11T14:52:54.090Z,100577.28
2022-09-11T14:55:23.371Z,100587.34
2022-09-11T14:57:52.605Z,100572.72
2022-09-11T15:00:23.479Z,100555.28
2022-09-11T15:02:52.894Z,100576.97
2022-09-11T15:05:24.725Z,100566.66
2022-09-11T15:07:54.064Z,100576.03
2022-09-11T15:10:23.859Z,100565.00
2022-09-11T15:12:53.021Z,100555.53
2022-09-11T15:15:29.283Z,100560.00
2022-09-11T15:17:58.521Z,100563.31
2022-09-11T15:20:27.883Z,100567.84
2022-09-11T15:22:57.894Z,100573.84
2022-09-11T15:25:27.106Z,100578.69
2022-09-11T15:27:56.301Z,100580.00
2022-09-11T15:30:25.874Z,100572.81
2022-09-11T15:32:56.844Z,100567.69
2022-09-11T15:35:28.499Z,100572.84
2022-09-11T15:38:05.850Z,100558.91
2022-09-11T15:40:36.978Z,100565.72
2022-09-11T15:43:06.240Z,100578.06
2022-09-11T15:45:35.588Z,100562.19
2022-09-11T15:48:06.299Z,100555.78
2022-09-11T15:50:35.690Z,100566.16
2022-09-11T15:53:05.047Z,100556.63
2022-09-11T15:55:35.615Z,100557.47
2022-09-11T15:58:04.901Z,100541.94
2022-09-11T16:00:36.853Z,100537.50
2022-09-11T16:03:07.924Z,100550.31
2022-09-11T16:05:43.110Z,100538.81
2022-09-11T16:08:13.128Z,100541.59
2022-09-11T16:10:42.735Z,100541.25
2022-09-11T16:13:12.031Z,100539.59
2022-09-11T16:15:41.284Z,100536.03
2022-09-11T16:18:12.183Z,100535.28
2022-09-11T16:20:43.647Z,100513.75
2022-09-11T16:23:13.225Z,100514.97
2022-09-11T16:25:44.077Z,100498.66
2022-09-11T16:28:13.364Z,100525.75
2022-09-11T16:30:45.846Z,100516.19
2022-09-11T16:33:18.273Z,100508.56
2022-09-11T16:35:59.767Z,100502.66
2022-09-11T16:38:30.290Z,100511.00
2022-09-11T16:41:03.576Z,100516.97
2022-09-11T16:43:32.786Z,100523.34
2022-09-11T16:46:02.510Z,100520.53
2022-09-11T16:48:34.021Z,100531.25
2022-09-11T16:51:03.225Z,100524.06
2022-09-11T16:53:35.397Z,100528.78
2022-09-11T16:56:08.349Z,100531.94
2022-09-11T16:58:42.315Z,100525.59
2022-09-11T17:01:16.988Z,100513.22
2022-09-11T17:03:51.186Z,100516.44
2022-09-11T17:06:22.554Z,100512.94
2022-09-11T17:08:55.033Z,100502.50
2022-09-11T17:11:24.610Z,100520.03
2022-09-11T17:13:56.885Z,100520.03
2022-09-11T17:16:31.463Z,100515.25
2022-09-11T17:19:03.059Z,100516.06
2022-09-11T17:21:37.074Z,100512.09
2022-09-11T17:24:07.980Z,100503.28
2022-09-11T17:26:37.563Z,100505.28
2022-09-11T17:29:08.351Z,100525.16
2022-09-11T17:31:37.604Z,100513.63
2022-09-11T17:34:17.172Z,100512.38
2022-09-11T17:36:46.558Z,100517.59
2022-09-11T17:39:16.087Z,100513.22
2022-09-11T17:41:48.002Z,100505.19
2022-09-11T17:44:17.475Z,100515.97
2022-09-11T17:46:49.220Z,100507.50
2022-09-11T17:49:22.267Z,100509.53
2022-09-11T17:51:51.844Z,100511.97
2022-09-11T17:54:22.205Z,100516.75
2022-09-11T17:56:51.983Z,100505.63
2022-09-11T17:59:21.334Z,100507.25
2022-09-11T18:01:51.232Z,100488.94
2022-09-11T18:04:22.568Z,100474.53
2022-09-11T18:06:53.024Z,100477.75
2022-09-11T18:09:22.516Z,100453.03
2022-09-11T18:11:54.025Z,100469.81
2022-09-11T18:14:27.571Z,100444.28
2022-09-11T18:16:57.702Z,100476.13
2022-09-11T18:19:28.426Z,100457.31
2022-09-11T18:22:01.743Z,100491.22
2022-09-11T18:24:31.411Z,100493.59
2022-09-11T18:27:01.316Z,100486.38
2022-09-11T18:29:30.853Z,100484.38
2022-09-11T18:32:00.546Z,100471.16
2022-09-11T18:34:32.366Z,100476.38
2022-09-11T18:37:02.842Z,100476.84
2022-09-11T18:39:32.228Z,100477.56
2022-09-11T18:42:01.977Z,100477.56
2022-09-11T18:44:31.291Z,100476.66
2022-09-11T18:47:00.562Z,100471.53
2022-09-11T18:49:31.111Z,100476.38
2022-09-11T18:52:00.666Z,100482.31
2022-09-11T18:54:30.430Z,100471.47
2022-09-11T18:57:00.247Z,100473.88
2022-09-11T18:59:29.727Z,100474.72
2022-09-11T19:02:00.251Z,100467.84
2022-09-11T19:04:31.485Z,100472.22
2022-09-11T19:07:00.743Z,100467.78
2022-09-11T19:09:29.968Z,100473.00
2022-09-11T19:12:00.291Z,100472.19
2022-09-11T19:14:30.661Z,100474.59
2022-09-11T19:17:00.466Z,100480.47
2022-09-11T19:19:31.158Z,100479.75
2022-09-11T19:22:00.855Z,100467.03
2022-09-11T19:24:30.772Z,100472.59
2022-09-11T19:27:00.410Z,100466.13
2022-09-11T19:29:29.924Z,100474.91
2022-09-11T19:32:00.504Z,100472.53
2022-09-11T19:34:34.053Z,100487.59
2022-09-11T19:37:05.902Z,100478.78
2022-09-11T19:39:35.261Z,100461.69
2022-09-11T19:42:05.072Z,100470.06
2022-09-11T19:44:34.543Z,100480.00
2022-09-11T19:47:04.584Z,100480.38
2022-09-11T19:49:35.194Z,100475.63
2022-09-11T19:52:04.987Z,100479.59
2022-09-11T19:54:35.510Z,100476.41
2022-09-11T19:57:05.367Z,100481.56
2022-09-11T19:59:34.890Z,100470.34
2022-09-11T20:02:04.204Z,100477.56
2022-09-11T20:04:34.989Z,100481.91
2022-09-11T20:07:04.329Z,100483.34
2022-09-11T20:09:34.072Z,100498.59
2022-09-11T20:12:04.050Z,100517.28
2022-09-11T20:14:33.222Z,100513.28
2022-09-11T20:17:05.016Z,100508.56
2022-09-11T20:19:35.751Z,100513.63
2022-09-11T20:22:05.234Z,100511.22
2022-09-11T20:24:34.661Z,100503.28
2022-09-11T20:27:03.879Z,100497.31
2022-09-11T20:29:33.124Z,100502.03
2022-09-11T20:32:02.902Z,100498.84
2022-09-11T20:34:32.436Z,100488.91
2022-09-11T20:37:06.900Z,100469.72
2022-09-11T20:39:44.303Z,100499.25
2022-09-11T20:42:14.181Z,100499.25
2022-09-11T20:44:45.531Z,100498.00
2022-09-11T20:47:14.776Z,100502.53
2022-09-11T20:49:46.454Z,100504.13
2022-09-11T20:52:17.687Z,100487.78
2022-09-11T20:54:48.610Z,100480.97
2022-09-11T20:57:18.015Z,100515.38
2022-09-11T20:59:47.309Z,100509.03
2022-09-11T21:02:17.738Z,100505.06
2022-09-11T21:04:49.050Z,100513.34
2022-09-11T21:07:19.657Z,100492.31
2022-09-11T21:09:49.041Z,100506.66
2022-09-11T21:12:18.546Z,100509.03
2022-09-11T21:14:47.763Z,100494.34
2022-09-11T21:17:16.978Z,100497.94
2022-09-11T21:19:46.245Z,100512.69
2022-09-11T21:22:15.621Z,100501.09
2022-09-11T21:24:46.507Z,100504.28
2022-09-11T21:27:15.735Z,100516.31
2022-09-11T21:29:44.984Z,100525.03
2022-09-11T21:32:14.263Z,100522.53
2022-09-11T21:34:43.538Z,100518.59
2022-09-11T21:37:13.450Z,100513.06
2022-09-11T21:39:42.835Z,100532.91
2022-09-11T21:42:13.531Z,100513.25
2022-09-11T21:44:42.746Z,100501.00
2022-09-11T21:47:12.013Z,100525.38
2022-09-11T21:49:41.234Z,100526.63
2022-09-11T21:52:10.436Z,100523.88
2022-09-11T21:54:39.845Z,100516.25
2022-09-11T21:57:09.111Z,100513.00
2022-09-11T21:59:39.952Z,100525.28
2022-09-11T22:02:09.220Z,100529.75
2022-09-11T22:04:38.683Z,100526.88
2022-09-11T22:07:07.959Z,100526.88
2022-09-11T22:09:37.272Z,100523.53
2022-09-11T22:12:06.936Z,100527.69
2022-09-11T22:14:36.416Z,100523.28
2022-09-11T22:17:07.176Z,100521.66
2022-09-11T22:19:36.381Z,100524.81
2022-09-11T22:22:06.773Z,100524.00
2022-09-11T22:24:35.967Z,100513.22
2022-09-11T22:27:05.496Z,100521.19
2022-09-11T22:29:34.713Z,100524.81
2022-09-11T22:32:04.416Z,100530.34
2022-09-11T22:34:38.263Z,100530.38
2022-09-11T22:37:07.642Z,100520.06
2022-09-11T22:39:36.956Z,100523.66
2022-09-11T22:42:06.579Z,100526.41
2022-09-11T22:44:35.900Z,100525.25
2022-09-11T22:47:05.738Z,100511.31
2022-09-11T22:49:36.270Z,100516.13
2022-09-11T22:52:05.631Z,100508.91
2022-09-11T22:54:34.892Z,100523.66
2022-09-11T22:57:04.215Z,100508.94
2022-09-11T22:59:33.430Z,100518.53
2022-09-11T23:02:03.213Z,100521.38
2022-09-11T23:04:32.480Z,100518.53
2022-09-11T23:07:17.149Z,100516.91
2022-09-11T23:09:46.474Z,100524.81
2022-09-11T23:12:15.659Z,100534.00
2022-09-11T23:14:45.743Z,100538.00
2022-09-11T23:17:15.166Z,100536.81
2022-09-11T23:19:44.378Z,100528.84
2022-09-11T23:22:14.873Z,100528.84
2022-09-11T23:24:44.116Z,100541.53
2022-09-11T23:27:13.374Z,100517.22
2022-09-11T23:29:42.515Z,100526.88
2022-09-11T23:32:11.771Z,100533.22
2022-09-11T23:34:40.992Z,100533.09
2022-09-11T23:37:10.183Z,100531.09
2022-09-11T23:39:41.091Z,100519.09
2022-09-11T23:42:10.406Z,100495.09
2022-09-11T23:44:39.621Z,100517.44
2022-09-11T23:47:09.048Z,100524.19
2022-09-11T23:49:38.317Z,100528.63
2022-09-11T23:52:07.611Z,100528.28
2022-09-11T23:54:36.922Z,100503.06
2022-09-11T23:57:08.102Z,100530.63
2022-09-11T23:59:37.381Z,100514.31
